Mario Kobel

Olheiro - Lugano
10 Set 2028
Domingo
Processo

Personalidade

Adaptabilidade (4) Ambição (7) Controvérsia (5) Lealdade (6) Pressão (11) Profissionalismo (2) Espírito Esportivo (2) Temperamento (6)

Perfil

Estilo de Treinamento Democrático
Licença Nacional B
Determinação 12
Gestão de Pessoas 7
Motivação 7
Disciplina 9
Satisfação no Trabalho
100%
Fadiga
0%
Função Olheiro
Salário 22.1K p/s
Contrato 14.03.2029

Desempenho

Comportamento Bom
Eficácia do Treinamento
33%
Desenvolvimento do Jogador
30%
Prevenção de Lesões
20%
Implementação Tática
30%

Eventos Recentes

Participou de uma reunião de recrutamento agora
Recomendou um alvo de transferência agora
Participou de uma reunião de recrutamento 7d atrás
Recomendou um alvo de transferência 7d atrás
Participou de uma reunião de recrutamento 7d atrás
Participou de uma reunião de recrutamento 7d atrás
Participou de uma reunião de recrutamento 14d atrás
Participou de uma reunião de recrutamento 14d atrás

Monitorando agora

75
Jogador Clube Status Habilidade Confiança Observado Última observação Último voto
Moussa Cissé Basel Relatório pronto 114 / 114 62% 1 12.06.2028 -
Chari Giwa US Bougouni Ativo 88 / 74 40% 1 27.05.2027 -
Samuele di Benedetto Twente Ativo 115 / 129 40% 2 26.05.2027 -
Mark Gillespie Shrewsbury Town Ativo 122 / 104 40% 1 25.05.2027 -
Balázs Tóth Blackburn Rovers Ativo 133 / 120 40% 1 25.05.2027 -
Marko Maroši Port Vale Ativo 110 / 107 40% 2 24.05.2027 -
Jack Bonham Bolton Wanderers Ativo 110 / 111 40% 3 23.05.2027 -
Joe Lumley Sheffield Wednesday Ativo 126 / 126 40% 1 22.05.2027 -
Filip Marschall Stevenage Ativo 121 / 111 40% 1 22.05.2027 -
Will Norris Wycombe Wanderers Ativo 116 / 105 40% 3 21.05.2027 -
Bade Aluko Leicester City Ativo 114 / 122 40% 2 21.05.2027 -
Victor Hernandez Santa Fe Ativo 121 / 115 40% 1 19.05.2027 -
Mattia Perin Palermo Ativo 135 / 149 40% 1 15.05.2027 -
Vladan Kovačević Norwich City Ativo 123 / 116 40% 1 13.05.2027 -
Sascha Britschgi AC Milan Ativo 111 / 128 40% 2 09.05.2027 -
Gonçalo Oliveira Benfica Ativo 102 / 107 40% 1 09.05.2027 -
Caleb Yirenkyi Coventry City Ativo 127 / 148 40% 3 08.05.2027 -
Bence Dárdai VfL Wolfsburg Ativo 127 / 134 40% 1 08.05.2027 -
Charlie Gray Fleetwood Town Ativo 87 / 102 40% 2 06.05.2027 -
Riley Owen Stevenage Ativo 96 / 103 40% 1 04.05.2027 -
Rivaldo Mkhize Black Aces Ativo 81 / 103 40% 1 04.05.2027 -
Anthony Patterson Wrexham Ativo 129 / 138 40% 1 02.05.2027 -
Luke Southwood Bristol Rovers Ativo 110 / 105 40% 1 01.05.2027 -
Ross Fitzsimons Northampton Town Ativo 109 / 97 40% 1 01.05.2027 -
Will Dennis Milton Keynes Dons Ativo 101 / 118 40% 1 25.04.2027 -
Martim Cunha Porto Ativo 105 / 103 40% 4 24.04.2027 -
Leandro Martins Benfica Ativo 103 / 92 40% 2 24.04.2027 -
Zane Albarus Shrewsbury Town Ativo 86 / 97 40% 1 19.04.2027 -
Jenson Jones Walsall Ativo 102 / 91 40% 1 18.04.2027 -
Mirko Pigliacelli Catanzaro Ativo 131 / 134 40% 1 12.04.2027 -
Connor Ripley Swindon Town Ativo 93 / 105 40% 1 12.04.2027 -
Nathan Trott Cardiff City Ativo 122 / 132 40% 1 11.04.2027 -
Williams Mabunda Ajax Cape Town Ativo 112 / 120 40% 1 10.04.2027 -
Afriyie Sulemana WAFA Ativo 88 / 85 40% 1 09.04.2027 -
Miguel Figueiredo Benfica Ativo 114 / 113 40% 1 09.04.2027 -
James Dornelly Peterborough United Ativo 95 / 100 40% 2 08.04.2027 -
Konta Ismaily Ativo 92 / 91 40% 1 07.04.2027 -
Othmane Maamma Watford Ativo 119 / 135 40% 3 05.03.2027 -
Cauan Baptistella Dynamo Kyiv Ativo 86 / 106 40% 1 05.03.2027 -
Dejan Radonjić SV Ried Ativo 119 / 117 40% 1 02.03.2027 -
Jon Eceizabarrena Real Sociedad Ativo 92 / 91 40% 1 27.02.2027 -
Peter Amidu Acquah Asante Kotoko Ativo 84 / 104 40% 2 22.02.2027 -
Mateus Mané Burnley Ativo 132 / 145 40% 2 20.02.2027 -
Gomolemo Kekana Maritzburg United Ativo 102 / 102 40% 1 19.02.2027 -
Sanel Šaljić Austria Wien Ativo 110 / 122 40% 2 16.02.2027 -
Sindre Walle Egeli Udinese Ativo 135 / 125 40% 1 14.02.2027 -
Romelle Donovan Brentford Ativo 111 / 131 40% 2 11.02.2027 -
Oscar Schwartau Norwich City Ativo 111 / 140 40% 2 10.02.2027 -
Lucas Ferreira Shakhtar Ativo 126 / 127 40% 1 10.02.2027 -
Ethan Williams Peterborough United Ativo 106 / 109 40% 1 03.02.2027 -
Habib Diarra Sunderland Ativo 139 / 146 40% 1 31.12.2026 -
Milan van Ewijk Coventry City Ativo 122 / 132 40% 2 30.12.2026 -
Matt O'Riley Brighton Ativo 141 / 147 40% 1 30.12.2026 -
Dwight McNeil Crystal Palace Ativo 139 / 141 40% 1 25.12.2026 -
Peter Federico Gornik Zabrze Ativo 118 / 128 40% 1 25.12.2026 Mais informações
Oswin Appollis Orlando Pirates Ativo 132 / 116 40% 2 23.12.2026 -
Marcelo Allende Mamelodi Sundowns Ativo 132 / 141 40% 2 20.12.2026 -
Bobby Clark Derby County Ativo 120 / 138 40% 1 19.12.2026 -
Kwadwo Baah Watford Ativo 126 / 131 40% 1 17.12.2026 -
Reda Khadra Qarabag Ativo 141 / 130 40% 1 13.12.2026 -
Matthias Seidl Rapid Wien Ativo 125 / 131 40% 3 11.12.2026 -
Tobias Gulliksen Rapid Wien Ativo 115 / 125 40% 1 11.12.2026 -
Scott Twine Bristol City Ativo 119 / 127 40% 2 08.12.2026 -
Lee Tae-Suk Austria Wien Ativo 114 / 131 40% 2 05.12.2026 -
Petter Nosa Dahl Rapid Wien Ativo 132 / 130 40% 1 04.12.2026 -
Younes Ebnoutalib Eintracht Frankfurt Ativo 138 / 126 40% 1 02.12.2026 -
Bradley Zwane SuperSport United Ativo 114 / 120 40% 1 12.11.2026 -
Jens Petter Hauge Bodo/Glimt Ativo 151 / 150 40% 1 11.11.2026 -
Jack Rudoni Coventry City Ativo 142 / 126 40% 1 11.11.2026 -
Linton Maina Köln Ativo 120 / 122 40% 1 09.11.2026 -
Tadeo Allende Inter Miami CF Ativo 123 / 106 40% 1 09.11.2026 -
Juan Bezerra Zamalek Ativo 112 / 107 40% 1 05.11.2026 -
Telasco Segovia Inter Miami CF Ativo 121 / 144 40% 1 07.10.2026 -
Sota Kitano Red Bull Salzburg Ativo 119 / 120 40% 1 05.10.2026 Mais informações
Carlo Boukhalfa St. Gallen Ativo 123 / 116 62% 1 10.08.2026 Aprovar